sensor_id;sensor_type;location;lat;lon;timestamp;pressure;altitude;pressure_sealevel;temperature;humidity
42415;BME280;28058;46.344;17.786;2023-04-24T00:01:16;118336.50;;;-144.97;47.76
42415;BME280;28058;46.344;17.786;2023-04-24T00:03:43;118336.50;;;-144.97;48.03
42415;BME280;28058;46.344;17.786;2023-04-24T00:06:10;118336.50;;;-144.97;47.92
42415;BME280;28058;46.344;17.786;2023-04-24T00:08:37;118336.50;;;-144.97;49.49
42415;BME280;28058;46.344;17.786;2023-04-24T00:11:04;118336.50;;;-144.97;49.67
42415;BME280;28058;46.344;17.786;2023-04-24T00:13:37;118336.50;;;-144.97;50.27
42415;BME280;28058;46.344;17.786;2023-04-24T00:16:04;118336.50;;;-144.97;51.37
42415;BME280;28058;46.344;17.786;2023-04-24T00:18:34;118336.50;;;-144.97;52.23
42415;BME280;28058;46.344;17.786;2023-04-24T00:21:03;118336.50;;;-144.97;52.58
42415;BME280;28058;46.344;17.786;2023-04-24T00:23:31;118336.50;;;-144.97;53.49
42415;BME280;28058;46.344;17.786;2023-04-24T00:25:58;118336.50;;;-144.97;54.07
42415;BME280;28058;46.344;17.786;2023-04-24T00:28:26;118336.50;;;-144.97;55.18
42415;BME280;28058;46.344;17.786;2023-04-24T00:30:53;118336.50;;;-144.97;56.70
42415;BME280;28058;46.344;17.786;2023-04-24T00:33:20;118336.50;;;-144.97;57.64
42415;BME280;28058;46.344;17.786;2023-04-24T00:35:47;118336.50;;;-144.97;58.78
42415;BME280;28058;46.344;17.786;2023-04-24T00:38:17;118336.50;;;-144.97;58.62
42415;BME280;28058;46.344;17.786;2023-04-24T00:40:44;118336.50;;;-144.97;59.56
42415;BME280;28058;46.344;17.786;2023-04-24T00:43:13;118336.50;;;-144.97;60.14
42415;BME280;28058;46.344;17.786;2023-04-24T00:45:40;118336.50;;;-144.97;60.74
42415;BME280;28058;46.344;17.786;2023-04-24T00:48:07;118336.50;;;-144.97;61.32
42415;BME280;28058;46.344;17.786;2023-04-24T00:50:40;118336.50;;;-144.97;62.69
42415;BME280;28058;46.344;17.786;2023-04-24T00:53:10;118336.50;;;-144.97;62.68
42415;BME280;28058;46.344;17.786;2023-04-24T00:55:37;118336.50;;;-144.97;63.30
42415;BME280;28058;46.344;17.786;2023-04-24T00:58:04;118336.50;;;-144.97;65.01
42415;BME280;28058;46.344;17.786;2023-04-24T01:00:31;118336.50;;;-144.97;66.12
42415;BME280;28058;46.344;17.786;2023-04-24T01:02:59;118336.50;;;-144.97;66.13
42415;BME280;28058;46.344;17.786;2023-04-24T01:05:27;118336.50;;;-144.97;67.54
42415;BME280;28058;46.344;17.786;2023-04-24T01:07:54;118336.50;;;-144.97;67.89
42415;BME280;28058;46.344;17.786;2023-04-24T01:10:21;118336.50;;;-144.97;67.94
42415;BME280;28058;46.344;17.786;2023-04-24T01:12:50;118336.50;;;-144.97;68.63
42415;BME280;28058;46.344;17.786;2023-04-24T01:15:19;118336.50;;;-144.97;69.46
42415;BME280;28058;46.344;17.786;2023-04-24T01:17:47;118336.50;;;-144.97;69.76
42415;BME280;28058;46.344;17.786;2023-04-24T01:20:14;118336.50;;;-144.97;70.27
42415;BME280;28058;46.344;17.786;2023-04-24T01:22:42;118336.50;;;-144.97;70.75
42415;BME280;28058;46.344;17.786;2023-04-24T01:25:09;118336.50;;;-144.97;71.05
42415;BME280;28058;46.344;17.786;2023-04-24T01:27:35;118336.50;;;-144.97;71.80
42415;BME280;28058;46.344;17.786;2023-04-24T01:30:02;118336.50;;;-144.97;72.08
42415;BME280;28058;46.344;17.786;2023-04-24T01:32:30;118336.50;;;-144.97;72.21
42415;BME280;28058;46.344;17.786;2023-04-24T01:34:57;118336.50;;;-144.97;72.10
42415;BME280;28058;46.344;17.786;2023-04-24T01:37:26;118336.50;;;-144.97;71.96
42415;BME280;28058;46.344;17.786;2023-04-24T01:39:56;118336.50;;;-144.97;72.19
42415;BME280;28058;46.344;17.786;2023-04-24T01:42:23;118336.50;;;-144.97;71.91
42415;BME280;28058;46.344;17.786;2023-04-24T01:44:50;118336.50;;;-144.97;72.09
42415;BME280;28058;46.344;17.786;2023-04-24T01:47:18;118336.50;;;-144.97;71.65
42415;BME280;28058;46.344;17.786;2023-04-24T01:49:45;118336.50;;;-144.97;72.17
42415;BME280;28058;46.344;17.786;2023-04-24T01:52:12;118336.50;;;-144.97;71.64
42415;BME280;28058;46.344;17.786;2023-04-24T01:54:39;118336.50;;;-144.97;72.37
42415;BME280;28058;46.344;17.786;2023-04-24T01:57:06;118336.50;;;-144.97;72.67
42415;BME280;28058;46.344;17.786;2023-04-24T01:59:33;118336.50;;;-144.97;73.15
42415;BME280;28058;46.344;17.786;2023-04-24T02:02:01;118336.50;;;-144.97;73.19
42415;BME280;28058;46.344;17.786;2023-04-24T02:04:29;118336.50;;;-144.97;73.77
42415;BME280;28058;46.344;17.786;2023-04-24T02:06:56;118336.50;;;-144.97;72.86
42415;BME280;28058;46.344;17.786;2023-04-24T02:09:23;118336.50;;;-144.97;72.36
42415;BME280;28058;46.344;17.786;2023-04-24T02:11:49;118336.50;;;-144.97;70.92
42415;BME280;28058;46.344;17.786;2023-04-24T02:14:16;118336.50;;;-144.97;70.73
42415;BME280;28058;46.344;17.786;2023-04-24T02:16:43;118336.50;;;-144.97;71.51
42415;BME280;28058;46.344;17.786;2023-04-24T02:19:10;118336.50;;;-144.97;70.45
42415;BME280;28058;46.344;17.786;2023-04-24T02:21:37;118336.50;;;-144.97;71.05
42415;BME280;28058;46.344;17.786;2023-04-24T02:24:04;118336.50;;;-144.97;69.83
42415;BME280;28058;46.344;17.786;2023-04-24T02:26:31;118336.50;;;-144.97;69.76
42415;BME280;28058;46.344;17.786;2023-04-24T02:28:58;118336.50;;;-144.97;68.95
42415;BME280;28058;46.344;17.786;2023-04-24T02:31:25;118336.50;;;-144.97;68.94
42415;BME280;28058;46.344;17.786;2023-04-24T02:33:51;118336.50;;;-144.97;69.21
42415;BME280;28058;46.344;17.786;2023-04-24T02:36:18;118336.50;;;-144.97;68.57
42415;BME280;28058;46.344;17.786;2023-04-24T02:38:45;118336.50;;;-144.97;68.56
42415;BME280;28058;46.344;17.786;2023-04-24T02:41:12;118336.50;;;-144.97;68.84
42415;BME280;28058;46.344;17.786;2023-04-24T02:43:39;118336.50;;;-144.97;69.52
42415;BME280;28058;46.344;17.786;2023-04-24T02:46:06;118336.50;;;-144.97;69.06
42415;BME280;28058;46.344;17.786;2023-04-24T02:48:33;118336.50;;;-144.97;69.06
42415;BME280;28058;46.344;17.786;2023-04-24T02:51:00;118336.50;;;-144.97;69.57
42415;BME280;28058;46.344;17.786;2023-04-24T02:53:26;118336.50;;;-144.97;69.31
42415;BME280;28058;46.344;17.786;2023-04-24T02:55:53;118336.50;;;-144.97;69.68
42415;BME280;28058;46.344;17.786;2023-04-24T02:58:20;118336.50;;;-144.97;69.69
42415;BME280;28058;46.344;17.786;2023-04-24T03:00:47;118336.50;;;-144.97;69.45
42415;BME280;28058;46.344;17.786;2023-04-24T03:03:14;118336.50;;;-144.97;69.72
42415;BME280;28058;46.344;17.786;2023-04-24T03:05:42;118336.50;;;-144.97;70.33
42415;BME280;28058;46.344;17.786;2023-04-24T03:08:09;118336.50;;;-144.97;70.08
42415;BME280;28058;46.344;17.786;2023-04-24T03:10:36;118336.50;;;-144.97;70.75
42415;BME280;28058;46.344;17.786;2023-04-24T03:13:03;118336.50;;;-144.97;70.24
42415;BME280;28058;46.344;17.786;2023-04-24T03:15:30;118336.50;;;-144.97;70.84
42415;BME280;28058;46.344;17.786;2023-04-24T03:17:57;118336.50;;;-144.97;71.88
42415;BME280;28058;46.344;17.786;2023-04-24T03:20:24;118336.50;;;-144.97;71.43
42415;BME280;28058;46.344;17.786;2023-04-24T03:22:51;118336.50;;;-144.97;71.70
42415;BME280;28058;46.344;17.786;2023-04-24T03:25:18;118336.50;;;-144.97;72.16
42415;BME280;28058;46.344;17.786;2023-04-24T03:27:44;118336.50;;;-144.97;72.26
42415;BME280;28058;46.344;17.786;2023-04-24T03:30:11;118336.50;;;-144.97;72.56
42415;BME280;28058;46.344;17.786;2023-04-24T03:32:38;118336.50;;;-144.97;73.23
42415;BME280;28058;46.344;17.786;2023-04-24T03:35:06;118336.50;;;-144.97;72.62
42415;BME280;28058;46.344;17.786;2023-04-24T03:37:34;118336.50;;;-144.97;73.09
42415;BME280;28058;46.344;17.786;2023-04-24T03:40:01;118336.50;;;-144.97;72.09
42415;BME280;28058;46.344;17.786;2023-04-24T03:42:28;118336.50;;;-144.97;72.72
42415;BME280;28058;46.344;17.786;2023-04-24T03:44:55;118336.50;;;-144.97;72.46
42415;BME280;28058;46.344;17.786;2023-04-24T03:47:22;118336.50;;;-144.97;72.55
42415;BME280;28058;46.344;17.786;2023-04-24T03:49:48;118336.50;;;-144.97;72.85
42415;BME280;28058;46.344;17.786;2023-04-24T03:52:15;118336.50;;;-144.97;73.07
42415;BME280;28058;46.344;17.786;2023-04-24T03:54:42;118336.50;;;-144.97;73.88
42415;BME280;28058;46.344;17.786;2023-04-24T03:57:09;118336.50;;;-144.97;74.02
42415;BME280;28058;46.344;17.786;2023-04-24T03:59:36;118336.50;;;-144.97;74.68
42415;BME280;28058;46.344;17.786;2023-04-24T04:02:02;118336.50;;;-144.97;74.92
42415;BME280;28058;46.344;17.786;2023-04-24T04:04:29;118336.50;;;-144.97;75.07
42415;BME280;28058;46.344;17.786;2023-04-24T04:06:57;118336.50;;;-144.97;74.66
42415;BME280;28058;46.344;17.786;2023-04-24T04:09:27;118336.50;;;-144.97;74.93
42415;BME280;28058;46.344;17.786;2023-04-24T04:11:54;118336.50;;;-144.97;74.96
42415;BME280;28058;46.344;17.786;2023-04-24T04:14:21;118336.50;;;-144.97;75.21
42415;BME280;28058;46.344;17.786;2023-04-24T04:16:48;118336.50;;;-144.97;76.00
42415;BME280;28058;46.344;17.786;2023-04-24T04:19:17;118336.50;;;-144.97;77.02
42415;BME280;28058;46.344;17.786;2023-04-24T04:21:44;118336.50;;;-144.97;78.00
42415;BME280;28058;46.344;17.786;2023-04-24T04:24:12;118336.50;;;-144.97;79.61
42415;BME280;28058;46.344;17.786;2023-04-24T04:26:39;118336.50;;;-144.97;80.01
42415;BME280;28058;46.344;17.786;2023-04-24T04:29:07;118336.50;;;-144.97;81.02
42415;BME280;28058;46.344;17.786;2023-04-24T04:31:33;118336.50;;;-144.97;80.81
42415;BME280;28058;46.344;17.786;2023-04-24T04:34:00;118336.50;;;-144.97;80.81
42415;BME280;28058;46.344;17.786;2023-04-24T04:36:27;118336.50;;;-144.97;79.58
42415;BME280;28058;46.344;17.786;2023-04-24T04:38:55;118336.50;;;-144.97;79.36
42415;BME280;28058;46.344;17.786;2023-04-24T04:41:23;118336.50;;;-144.97;79.73
42415;BME280;28058;46.344;17.786;2023-04-24T04:43:50;118336.50;;;-144.97;78.46
42415;BME280;28058;46.344;17.786;2023-04-24T04:46:17;118336.50;;;-144.97;77.84
42415;BME280;28058;46.344;17.786;2023-04-24T04:48:44;118336.50;;;-144.97;77.31
42415;BME280;28058;46.344;17.786;2023-04-24T04:51:11;118336.50;;;-144.97;76.77
42415;BME280;28058;46.344;17.786;2023-04-24T04:53:38;118336.50;;;-144.97;75.93
42415;BME280;28058;46.344;17.786;2023-04-24T04:56:04;118336.50;;;-144.97;74.87
42415;BME280;28058;46.344;17.786;2023-04-24T04:58:31;118336.50;;;-144.97;75.29
42415;BME280;28058;46.344;17.786;2023-04-24T05:00:58;118336.50;;;-144.97;73.96
42415;BME280;28058;46.344;17.786;2023-04-24T05:03:25;118336.50;;;-144.97;73.34
42415;BME280;28058;46.344;17.786;2023-04-24T05:05:53;118336.50;;;-144.97;73.00
42415;BME280;28058;46.344;17.786;2023-04-24T05:08:19;118336.50;;;-144.97;71.99
42415;BME280;28058;46.344;17.786;2023-04-24T05:10:53;118336.50;;;-144.97;73.50
42415;BME280;28058;46.344;17.786;2023-04-24T05:13:20;118336.50;;;-144.97;73.71
42415;BME280;28058;46.344;17.786;2023-04-24T05:16:04;118336.50;;;-144.97;73.74
42415;BME280;28058;46.344;17.786;2023-04-24T05:18:31;118336.50;;;-144.97;74.28
42415;BME280;28058;46.344;17.786;2023-04-24T05:20:58;118336.50;;;-144.97;73.89
42415;BME280;28058;46.344;17.786;2023-04-24T05:23:24;118336.50;;;-144.97;75.29
42415;BME280;28058;46.344;17.786;2023-04-24T05:25:51;118336.50;;;-144.97;75.96
42415;BME280;28058;46.344;17.786;2023-04-24T05:28:18;118336.50;;;-144.97;75.49
42415;BME280;28058;46.344;17.786;2023-04-24T05:30:45;118336.50;;;-144.97;75.78
42415;BME280;28058;46.344;17.786;2023-04-24T05:33:12;118336.50;;;-144.97;74.70
42415;BME280;28058;46.344;17.786;2023-04-24T05:35:40;118336.50;;;-144.97;74.37
42415;BME280;28058;46.344;17.786;2023-04-24T05:38:12;118336.50;;;-144.97;74.08
42415;BME280;28058;46.344;17.786;2023-04-24T05:40:39;118336.50;;;-144.97;74.02
42415;BME280;28058;46.344;17.786;2023-04-24T05:43:06;118336.50;;;-144.97;72.91
42415;BME280;28058;46.344;17.786;2023-04-24T05:45:33;118336.50;;;-144.97;73.62
42415;BME280;28058;46.344;17.786;2023-04-24T05:48:02;118336.50;;;-144.97;71.68
42415;BME280;28058;46.344;17.786;2023-04-24T05:50:29;118336.50;;;-144.97;70.70
42415;BME280;28058;46.344;17.786;2023-04-24T05:52:56;118336.50;;;-144.97;70.03
42415;BME280;28058;46.344;17.786;2023-04-24T05:55:28;118336.50;;;-144.97;69.07
42415;BME280;28058;46.344;17.786;2023-04-24T05:57:55;118336.50;;;-144.97;66.86
42415;BME280;28058;46.344;17.786;2023-04-24T06:00:23;118336.50;;;-144.97;64.77
42415;BME280;28058;46.344;17.786;2023-04-24T06:02:50;118336.50;;;-144.97;64.63
42415;BME280;28058;46.344;17.786;2023-04-24T06:05:19;118336.50;;;-144.97;63.16
42415;BME280;28058;46.344;17.786;2023-04-24T06:07:47;118336.50;;;-144.97;62.49
42415;BME280;28058;46.344;17.786;2023-04-24T06:10:14;118336.50;;;-144.97;63.42
42415;BME280;28058;46.344;17.786;2023-04-24T06:12:42;118336.50;;;-144.97;63.93
42415;BME280;28058;46.344;17.786;2023-04-24T06:15:08;118336.50;;;-144.97;62.17
42415;BME280;28058;46.344;17.786;2023-04-24T06:17:35;118336.50;;;-144.97;62.32
42415;BME280;28058;46.344;17.786;2023-04-24T06:20:03;118336.50;;;-144.97;62.09
42415;BME280;28058;46.344;17.786;2023-04-24T06:22:32;118336.50;;;-144.97;62.09
42415;BME280;28058;46.344;17.786;2023-04-24T06:24:59;118336.50;;;-144.97;62.79
42415;BME280;28058;46.344;17.786;2023-04-24T06:27:26;118336.50;;;-144.97;62.66
42415;BME280;28058;46.344;17.786;2023-04-24T06:29:52;118336.50;;;-144.97;63.28
42415;BME280;28058;46.344;17.786;2023-04-24T06:32:21;118336.50;;;-144.97;62.75
42415;BME280;28058;46.344;17.786;2023-04-24T06:34:49;118336.50;;;-144.97;61.62
42415;BME280;28058;46.344;17.786;2023-04-24T06:37:15;118336.50;;;-144.97;61.63
42415;BME280;28058;46.344;17.786;2023-04-24T06:39:42;118336.50;;;-144.97;59.70
42415;BME280;28058;46.344;17.786;2023-04-24T06:42:09;118336.50;;;-144.97;56.59
42415;BME280;28058;46.344;17.786;2023-04-24T06:44:36;118336.50;;;-144.97;54.90
42415;BME280;28058;46.344;17.786;2023-04-24T06:47:07;118336.50;;;-144.97;57.16
42415;BME280;28058;46.344;17.786;2023-04-24T06:49:35;118336.50;;;-144.97;53.91
42415;BME280;28058;46.344;17.786;2023-04-24T06:52:02;118336.50;;;-144.97;54.13
42415;BME280;28058;46.344;17.786;2023-04-24T06:54:30;118336.50;;;-144.97;55.50
42415;BME280;28058;46.344;17.786;2023-04-24T06:56:57;118336.50;;;-144.97;54.50
42415;BME280;28058;46.344;17.786;2023-04-24T06:59:24;118336.50;;;-144.97;59.13
42415;BME280;28058;46.344;17.786;2023-04-24T07:01:51;118336.50;;;-144.97;62.42
42415;BME280;28058;46.344;17.786;2023-04-24T07:04:21;118336.50;;;-144.97;63.01
42415;BME280;28058;46.344;17.786;2023-04-24T07:06:48;118336.50;;;-144.97;63.44
42415;BME280;28058;46.344;17.786;2023-04-24T07:09:21;118336.50;;;-144.97;64.05
42415;BME280;28058;46.344;17.786;2023-04-24T07:11:48;118336.50;;;-144.97;64.62
42415;BME280;28058;46.344;17.786;2023-04-24T07:14:15;118336.50;;;-144.97;64.77
42415;BME280;28058;46.344;17.786;2023-04-24T07:16:42;118336.50;;;-144.97;64.05
42415;BME280;28058;46.344;17.786;2023-04-24T07:19:09;118336.50;;;-144.97;63.74
42415;BME280;28058;46.344;17.786;2023-04-24T07:21:36;118336.50;;;-144.97;64.09
42415;BME280;28058;46.344;17.786;2023-04-24T07:24:03;118336.50;;;-144.97;64.79
42415;BME280;28058;46.344;17.786;2023-04-24T07:26:30;118336.50;;;-144.97;64.61
42415;BME280;28058;46.344;17.786;2023-04-24T07:28:57;118336.50;;;-144.97;65.86
42415;BME280;28058;46.344;17.786;2023-04-24T07:31:24;118336.50;;;-144.97;66.41
42415;BME280;28058;46.344;17.786;2023-04-24T07:33:51;118336.50;;;-144.97;66.38
42415;BME280;28058;46.344;17.786;2023-04-24T07:36:18;118336.50;;;-144.97;64.94
42415;BME280;28058;46.344;17.786;2023-04-24T07:38:45;118336.50;;;-144.97;64.91
42415;BME280;28058;46.344;17.786;2023-04-24T07:41:13;118336.50;;;-144.97;63.31
42415;BME280;28058;46.344;17.786;2023-04-24T07:43:40;118336.50;;;-144.97;62.36
42415;BME280;28058;46.344;17.786;2023-04-24T07:46:07;118336.50;;;-144.97;61.50
42415;BME280;28058;46.344;17.786;2023-04-24T07:48:35;118336.50;;;-144.97;57.91
42415;BME280;28058;46.344;17.786;2023-04-24T07:51:02;118336.50;;;-144.97;58.25
42415;BME280;28058;46.344;17.786;2023-04-24T07:53:29;118336.50;;;-144.97;61.13
42415;BME280;28058;46.344;17.786;2023-04-24T07:55:56;118336.50;;;-144.97;60.37
42415;BME280;28058;46.344;17.786;2023-04-24T07:58:23;118336.50;;;-144.97;61.83
42415;BME280;28058;46.344;17.786;2023-04-24T08:00:50;118336.50;;;-144.97;63.59
42415;BME280;28058;46.344;17.786;2023-04-24T08:03:17;118336.50;;;-144.97;62.97
42415;BME280;28058;46.344;17.786;2023-04-24T08:05:46;118336.50;;;-144.97;60.11
42415;BME280;28058;46.344;17.786;2023-04-24T08:08:13;118336.50;;;-144.97;54.37
42415;BME280;28058;46.344;17.786;2023-04-24T08:10:40;118336.50;;;-144.97;54.32
42415;BME280;28058;46.344;17.786;2023-04-24T08:13:07;118336.50;;;-144.97;59.19
42415;BME280;28058;46.344;17.786;2023-04-24T08:15:34;118336.50;;;-144.97;60.39
42415;BME280;28058;46.344;17.786;2023-04-24T08:18:01;118336.50;;;-144.97;64.00
42415;BME280;28058;46.344;17.786;2023-04-24T08:20:27;118336.50;;;-144.97;64.51
42415;BME280;28058;46.344;17.786;2023-04-24T08:22:54;118336.50;;;-144.97;65.00
42415;BME280;28058;46.344;17.786;2023-04-24T08:25:21;118336.50;;;-144.97;64.47
42415;BME280;28058;46.344;17.786;2023-04-24T08:27:49;118336.50;;;-144.97;66.07
42415;BME280;28058;46.344;17.786;2023-04-24T08:30:17;118336.50;;;-144.97;65.92
42415;BME280;28058;46.344;17.786;2023-04-24T08:32:44;118336.50;;;-144.97;65.70
42415;BME280;28058;46.344;17.786;2023-04-24T08:35:11;118336.50;;;-144.97;62.87
42415;BME280;28058;46.344;17.786;2023-04-24T08:37:37;118336.50;;;-144.97;60.25
42415;BME280;28058;46.344;17.786;2023-04-24T08:40:11;118336.50;;;-144.97;56.54
42415;BME280;28058;46.344;17.786;2023-04-24T08:42:39;118336.50;;;-144.97;61.20
42415;BME280;28058;46.344;17.786;2023-04-24T08:45:08;118336.50;;;-144.97;59.44
42415;BME280;28058;46.344;17.786;2023-04-24T08:47:35;118336.50;;;-144.97;51.81
42415;BME280;28058;46.344;17.786;2023-04-24T08:50:02;118336.50;;;-144.97;46.54
42415;BME280;28058;46.344;17.786;2023-04-24T08:52:29;118336.50;;;-144.97;46.43
42415;BME280;28058;46.344;17.786;2023-04-24T08:54:56;118336.50;;;-144.97;47.11
42415;BME280;28058;46.344;17.786;2023-04-24T08:57:23;118336.50;;;-144.97;48.50
42415;BME280;28058;46.344;17.786;2023-04-24T08:59:51;118336.50;;;-144.97;52.07
42415;BME280;28058;46.344;17.786;2023-04-24T09:02:18;118336.50;;;-144.97;52.28
42415;BME280;28058;46.344;17.786;2023-04-24T09:04:45;118336.50;;;-144.97;55.00
42415;BME280;28058;46.344;17.786;2023-04-24T09:07:14;118336.50;;;-144.97;52.62
42415;BME280;28058;46.344;17.786;2023-04-24T09:09:43;118336.50;;;-144.97;52.20
42415;BME280;28058;46.344;17.786;2023-04-24T09:12:11;118336.50;;;-144.97;53.64
42415;BME280;28058;46.344;17.786;2023-04-24T09:14:38;118336.50;;;-144.97;54.63
42415;BME280;28058;46.344;17.786;2023-04-24T09:17:09;118336.50;;;-144.97;56.09
42415;BME280;28058;46.344;17.786;2023-04-24T09:19:36;118336.50;;;-144.97;57.19
42415;BME280;28058;46.344;17.786;2023-04-24T09:22:06;118336.50;;;-144.97;59.65
42415;BME280;28058;46.344;17.786;2023-04-24T09:24:33;118336.50;;;-144.97;60.63
42415;BME280;28058;46.344;17.786;2023-04-24T09:27:01;118336.50;;;-144.97;62.41
42415;BME280;28058;46.344;17.786;2023-04-24T09:29:28;118336.50;;;-144.97;63.79
42415;BME280;28058;46.344;17.786;2023-04-24T09:31:55;118336.50;;;-144.97;64.44
42415;BME280;28058;46.344;17.786;2023-04-24T09:34:23;118336.50;;;-144.97;65.17
42415;BME280;28058;46.344;17.786;2023-04-24T09:36:50;118336.50;;;-144.97;63.90
42415;BME280;28058;46.344;17.786;2023-04-24T09:39:18;118336.50;;;-144.97;64.80
42415;BME280;28058;46.344;17.786;2023-04-24T09:44:16;118336.50;;;-144.97;65.29
42415;BME280;28058;46.344;17.786;2023-04-24T09:46:44;118336.50;;;-144.97;67.13
42415;BME280;28058;46.344;17.786;2023-04-24T09:49:13;118336.50;;;-144.97;67.78
42415;BME280;28058;46.344;17.786;2023-04-24T09:51:40;118336.50;;;-144.97;70.98
42415;BME280;28058;46.344;17.786;2023-04-24T09:54:20;118336.50;;;-144.97;71.35
42415;BME280;28058;46.344;17.786;2023-04-24T09:56:51;118336.50;;;-144.97;72.27
42415;BME280;28058;46.344;17.786;2023-04-24T09:59:18;118336.50;;;-144.97;74.70
42415;BME280;28058;46.344;17.786;2023-04-24T10:01:45;118336.50;;;-144.97;74.51
42415;BME280;28058;46.344;17.786;2023-04-24T10:04:19;118336.50;;;-144.97;74.63
42415;BME280;28058;46.344;17.786;2023-04-24T10:06:48;118336.50;;;-144.97;76.79
42415;BME280;28058;46.344;17.786;2023-04-24T10:09:18;118336.50;;;-144.97;78.54
42415;BME280;28058;46.344;17.786;2023-04-24T10:11:47;118336.50;;;-144.97;78.14
42415;BME280;28058;46.344;17.786;2023-04-24T10:14:15;118336.50;;;-144.97;81.19
42415;BME280;28058;46.344;17.786;2023-04-24T10:16:42;118336.50;;;-144.97;78.08
42415;BME280;28058;46.344;17.786;2023-04-24T10:19:09;118336.50;;;-144.97;78.19
42415;BME280;28058;46.344;17.786;2023-04-24T10:21:37;118336.50;;;-144.97;77.82
42415;BME280;28058;46.344;17.786;2023-04-24T10:24:09;118336.50;;;-144.97;80.04
42415;BME280;28058;46.344;17.786;2023-04-24T10:26:36;118336.50;;;-144.97;77.99
42415;BME280;28058;46.344;17.786;2023-04-24T10:29:03;118336.50;;;-144.97;73.92
42415;BME280;28058;46.344;17.786;2023-04-24T10:31:31;118336.50;;;-144.97;74.79
42415;BME280;28058;46.344;17.786;2023-04-24T10:33:59;118336.50;;;-144.97;73.54
42415;BME280;28058;46.344;17.786;2023-04-24T10:36:26;118336.50;;;-144.97;74.63
42415;BME280;28058;46.344;17.786;2023-04-24T10:38:54;118336.50;;;-144.97;73.92
42415;BME280;28058;46.344;17.786;2023-04-24T10:41:23;118336.50;;;-144.97;73.47
42415;BME280;28058;46.344;17.786;2023-04-24T10:44:27;118336.50;;;-144.97;74.80
42415;BME280;28058;46.344;17.786;2023-04-24T10:46:46;118336.50;;;-144.97;72.96
42415;BME280;28058;46.344;17.786;2023-04-24T10:49:14;118336.50;;;-144.97;73.01
42415;BME280;28058;46.344;17.786;2023-04-24T10:51:48;118336.50;;;-144.97;74.54
42415;BME280;28058;46.344;17.786;2023-04-24T10:54:22;118336.50;;;-144.97;74.15
42415;BME280;28058;46.344;17.786;2023-04-24T10:56:50;118336.50;;;-144.97;74.61
42415;BME280;28058;46.344;17.786;2023-04-24T10:59:26;118336.50;;;-144.97;73.43
42415;BME280;28058;46.344;17.786;2023-04-24T11:01:54;118336.50;;;-144.97;72.96
42415;BME280;28058;46.344;17.786;2023-04-24T11:04:28;118336.50;;;-144.97;73.56
42415;BME280;28058;46.344;17.786;2023-04-24T11:06:56;118336.50;;;-144.97;74.58
42415;BME280;28058;46.344;17.786;2023-04-24T11:09:26;118336.50;;;-144.97;73.34
42415;BME280;28058;46.344;17.786;2023-04-24T11:12:02;118336.50;;;-144.97;74.44
42415;BME280;28058;46.344;17.786;2023-04-24T11:14:29;118336.50;;;-144.97;76.64
42415;BME280;28058;46.344;17.786;2023-04-24T11:16:56;118336.50;;;-144.97;75.31
42415;BME280;28058;46.344;17.786;2023-04-24T11:21:57;118336.50;;;-144.97;76.05
42415;BME280;28058;46.344;17.786;2023-04-24T11:24:28;118336.50;;;-144.97;76.16
42415;BME280;28058;46.344;17.786;2023-04-24T11:26:56;118336.50;;;-144.97;76.13
42415;BME280;28058;46.344;17.786;2023-04-24T11:29:37;118336.50;;;-144.97;75.56
42415;BME280;28058;46.344;17.786;2023-04-24T11:32:18;118336.50;;;-144.97;76.64
42415;BME280;28058;46.344;17.786;2023-04-24T11:34:46;118336.50;;;-144.97;75.07
42415;BME280;28058;46.344;17.786;2023-04-24T11:37:13;118336.50;;;-144.97;74.52
42415;BME280;28058;46.344;17.786;2023-04-24T11:39:41;118336.50;;;-144.97;74.84
42415;BME280;28058;46.344;17.786;2023-04-24T11:42:08;118336.50;;;-144.97;76.84
42415;BME280;28058;46.344;17.786;2023-04-24T11:44:36;118336.50;;;-144.97;76.42
42415;BME280;28058;46.344;17.786;2023-04-24T11:47:04;118336.50;;;-144.97;78.06
42415;BME280;28058;46.344;17.786;2023-04-24T11:49:31;118336.50;;;-144.97;76.84
42415;BME280;28058;46.344;17.786;2023-04-24T11:52:02;118336.50;;;-144.97;78.27
42415;BME280;28058;46.344;17.786;2023-04-24T11:54:29;118336.50;;;-144.97;78.60
42415;BME280;28058;46.344;17.786;2023-04-24T11:56:56;118336.50;;;-144.97;77.77
42415;BME280;28058;46.344;17.786;2023-04-24T11:59:23;118336.50;;;-144.97;79.61
42415;BME280;28058;46.344;17.786;2023-04-24T12:01:50;118336.50;;;-144.97;80.17
42415;BME280;28058;46.344;17.786;2023-04-24T12:04:17;118336.50;;;-144.97;79.21
42415;BME280;28058;46.344;17.786;2023-04-24T12:07:04;118336.50;;;-144.97;79.75
42415;BME280;28058;46.344;17.786;2023-04-24T12:09:44;118336.50;;;-144.97;78.82
42415;BME280;28058;46.344;17.786;2023-04-24T12:12:13;118336.50;;;-144.97;79.13
42415;BME280;28058;46.344;17.786;2023-04-24T12:14:49;118336.50;;;-144.97;79.36
42415;BME280;28058;46.344;17.786;2023-04-24T12:17:16;118336.50;;;-144.97;77.90
42415;BME280;28058;46.344;17.786;2023-04-24T12:19:47;118336.50;;;-144.97;78.32
42415;BME280;28058;46.344;17.786;2023-04-24T12:22:14;118336.50;;;-144.97;78.74
42415;BME280;28058;46.344;17.786;2023-04-24T12:25:00;118336.50;;;-144.97;80.82
42415;BME280;28058;46.344;17.786;2023-04-24T12:27:31;118336.50;;;-144.97;80.12
42415;BME280;28058;46.344;17.786;2023-04-24T12:30:00;118336.50;;;-144.97;81.09